createdAt,value
2023-04-15T00:01:06.492Z,98923.16
2023-04-15T00:06:13.709Z,98916.43
2023-04-15T00:11:20.760Z,98909.23
2023-04-15T00:16:28.477Z,98905.34
2023-04-15T00:21:35.815Z,98908.66
2023-04-15T00:26:42.747Z,98909.23
2023-04-15T00:31:49.838Z,98909.29
2023-04-15T00:36:56.819Z,98916.09
2023-04-15T00:42:03.996Z,98909.79
2023-04-15T00:47:12.516Z,98907.00
2023-04-15T00:52:19.460Z,98912.78
2023-04-15T00:57:27.214Z,98913.13
2023-04-15T01:02:35.640Z,98923.41
2023-04-15T01:07:42.702Z,98922.23
2023-04-15T01:12:49.939Z,98919.17
2023-04-15T01:17:57.957Z,98916.20
2023-04-15T01:23:05.163Z,98909.61
2023-04-15T01:28:12.624Z,98913.25
2023-04-15T01:33:19.689Z,98920.33
2023-04-15T01:38:28.078Z,98916.74
2023-04-15T01:43:34.959Z,98920.96
2023-04-15T01:48:42.222Z,98925.08
2023-04-15T01:53:49.217Z,98921.94
2023-04-15T01:58:56.285Z,98926.27
2023-04-15T02:04:03.451Z,98925.06
2023-04-15T02:09:11.725Z,98930.98
2023-04-15T02:14:18.606Z,98933.00
2023-04-15T02:19:26.168Z,98937.61
2023-04-15T02:24:33.437Z,98938.70
2023-04-15T02:29:40.626Z,98938.45
2023-04-15T02:34:48.404Z,98941.10
2023-04-15T02:39:57.218Z,98940.14
2023-04-15T02:45:04.312Z,98946.42
2023-04-15T02:50:15.208Z,98956.48
2023-04-15T02:55:22.778Z,98954.55
2023-04-15T03:00:30.330Z,98954.46
2023-04-15T03:05:39.281Z,98958.59
2023-04-15T03:10:46.318Z,98973.06
2023-04-15T03:15:53.397Z,98985.05
2023-04-15T03:21:02.749Z,98997.98
2023-04-15T03:26:11.181Z,98998.80
2023-04-15T03:31:18.384Z,98999.93
2023-04-15T03:36:26.162Z,99004.71
2023-04-15T03:41:33.829Z,99014.39
2023-04-15T03:46:41.403Z,99022.38
2023-04-15T03:51:48.616Z,99048.17
2023-04-15T03:56:56.040Z,99052.44
2023-04-15T04:02:03.114Z,99058.43
2023-04-15T04:07:10.304Z,99061.30
2023-04-15T04:12:17.244Z,99069.36
2023-04-15T04:17:24.295Z,99069.56
2023-04-15T04:22:31.490Z,99076.52
2023-04-15T04:27:38.544Z,99083.20
2023-04-15T04:32:45.618Z,99086.57
2023-04-15T04:37:53.844Z,99094.63
2023-04-15T04:43:01.139Z,99095.96
2023-04-15T04:48:10.316Z,99107.09
2023-04-15T04:53:18.583Z,99114.29
2023-04-15T04:58:25.965Z,99112.83
2023-04-15T05:03:33.154Z,99117.64
2023-04-15T05:08:41.371Z,99119.81
2023-04-15T05:13:48.391Z,99111.08
2023-04-15T05:18:55.726Z,99118.14
2023-04-15T05:24:02.679Z,99123.83
2023-04-15T05:29:09.650Z,99126.11
2023-04-15T05:34:17.566Z,99128.29
2023-04-15T05:39:24.643Z,99143.48
2023-04-15T05:44:31.734Z,99148.17
2023-04-15T05:49:38.767Z,99151.61
2023-04-15T05:54:45.842Z,99163.80
2023-04-15T05:59:52.908Z,99169.92
2023-04-15T06:05:01.179Z,99177.69
2023-04-15T06:10:11.050Z,99183.80
2023-04-15T06:15:18.057Z,99189.44
2023-04-15T06:20:25.672Z,99192.02
2023-04-15T06:25:32.630Z,99190.16
2023-04-15T06:30:40.158Z,99192.59
2023-04-15T06:35:47.612Z,99198.40
2023-04-15T06:40:54.606Z,99201.52
2023-04-15T06:46:01.757Z,99207.44
2023-04-15T06:51:09.163Z,99208.80
2023-04-15T06:56:16.458Z,99210.79
2023-04-15T07:01:23.614Z,99219.13
2023-04-15T07:06:30.592Z,99222.11
2023-04-15T07:11:37.729Z,99228.37
2023-04-15T07:16:45.063Z,99236.73
2023-04-15T07:21:53.421Z,99242.79
2023-04-15T07:27:01.287Z,99250.67
2023-04-15T07:32:11.416Z,99250.63
2023-04-15T07:37:19.219Z,99253.36
2023-04-15T07:42:26.628Z,99252.27
2023-04-15T07:47:33.847Z,99247.91
2023-04-15T07:52:40.961Z,99243.23
2023-04-15T07:57:48.569Z,99248.20
2023-04-15T08:02:57.550Z,99255.88
2023-04-15T08:08:04.749Z,99265.13
2023-04-15T08:13:11.825Z,99271.23
2023-04-15T08:18:18.786Z,99273.68
2023-04-15T08:23:25.808Z,99285.38
2023-04-15T08:28:33.080Z,99288.16
2023-04-15T08:33:40.251Z,99280.39
2023-04-15T08:38:47.262Z,99291.33
2023-04-15T08:44:03.246Z,99297.76
2023-04-15T08:49:13.377Z,99295.13
2023-04-15T08:54:21.467Z,99302.05
2023-04-15T08:59:28.532Z,99298.80
2023-04-15T09:04:36.101Z,99301.29
2023-04-15T09:09:43.039Z,99300.46
2023-04-15T09:14:50.060Z,99297.52
2023-04-15T09:20:11.390Z,99294.81
2023-04-15T09:25:34.270Z,99299.96
2023-04-15T09:30:46.618Z,99302.64
2023-04-15T09:36:03.597Z,99305.11
2023-04-15T09:41:20.812Z,99309.45
2023-04-15T09:46:44.680Z,99317.61
2023-04-15T09:52:04.541Z,99318.41
2023-04-15T09:57:12.388Z,99323.67
2023-04-15T10:02:21.984Z,99328.33
2023-04-15T10:07:29.988Z,99330.61
2023-04-15T10:12:38.222Z,99334.41
2023-04-15T10:17:46.900Z,99332.95
2023-04-15T10:22:54.501Z,99328.77
2023-04-15T10:28:02.577Z,99331.18
2023-04-15T10:33:11.335Z,99335.13
2023-04-15T10:38:38.602Z,99332.09
2023-04-15T10:43:51.647Z,99334.80
2023-04-15T10:48:58.646Z,99336.83
2023-04-15T10:54:10.353Z,99341.33
2023-04-15T10:59:20.363Z,99346.09
2023-04-15T11:04:44.817Z,99353.20
2023-04-15T11:09:51.868Z,99350.81
2023-04-15T11:15:00.094Z,99349.33
2023-04-15T11:20:09.842Z,99348.25
2023-04-15T11:25:26.128Z,99354.20
2023-04-15T11:30:34.715Z,99358.85
2023-04-15T11:35:44.250Z,99364.19
2023-04-15T11:40:52.448Z,99362.52
2023-04-15T11:46:01.363Z,99360.19
2023-04-15T11:51:09.151Z,99363.83
2023-04-15T11:56:21.161Z,99370.27
2023-04-15T12:01:36.755Z,99377.48
2023-04-15T12:06:43.643Z,99385.51
2023-04-15T12:11:53.024Z,99388.23
2023-04-15T12:17:02.087Z,99392.13
2023-04-15T12:22:12.208Z,99395.80
2023-04-15T12:27:19.861Z,99396.96
2023-04-15T12:32:27.382Z,99395.69
2023-04-15T12:37:34.253Z,99398.21
2023-04-15T12:42:41.507Z,99398.40
2023-04-15T12:47:48.491Z,99401.88
2023-04-15T12:52:55.405Z,99403.05
2023-04-15T12:58:02.576Z,99400.82
2023-04-15T13:03:09.597Z,99398.39
2023-04-15T13:08:16.611Z,99396.05
2023-04-15T13:13:23.701Z,99397.80
2023-04-15T13:18:31.393Z,99398.84
2023-04-15T13:23:38.406Z,99402.39
2023-04-15T13:28:45.748Z,99409.30
2023-04-15T13:33:52.683Z,99408.66
2023-04-15T13:39:00.169Z,99402.13
2023-04-15T13:44:07.320Z,99399.43
2023-04-15T13:49:15.859Z,99392.66
2023-04-15T13:54:22.802Z,99388.73
2023-04-15T13:59:30.474Z,99393.70
2023-04-15T14:04:37.616Z,99399.77
2023-04-15T14:09:44.545Z,99405.86
2023-04-15T14:14:51.473Z,99405.74
2023-04-15T14:19:58.339Z,99403.41
2023-04-15T14:25:06.537Z,99398.51
2023-04-15T14:30:14.655Z,99400.09
2023-04-15T14:35:21.862Z,99410.77
2023-04-15T14:40:28.884Z,99416.27
2023-04-15T14:45:36.485Z,99417.69
2023-04-15T14:50:43.826Z,99426.13
2023-04-15T14:55:50.711Z,99424.46
2023-04-15T15:00:57.798Z,99431.17
2023-04-15T15:06:04.690Z,99435.25
2023-04-15T15:11:11.576Z,99442.98
2023-04-15T15:16:18.590Z,99444.52
2023-04-15T15:21:27.176Z,99448.05
2023-04-15T15:26:34.305Z,99449.36
2023-04-15T15:31:41.353Z,99452.36
2023-04-15T15:36:48.228Z,99453.06
2023-04-15T15:41:55.234Z,99457.77
2023-04-15T15:47:02.315Z,99465.25
2023-04-15T15:52:09.820Z,99471.33
2023-04-15T15:57:16.891Z,99473.95
2023-04-15T16:02:40.100Z,99479.70
2023-04-15T16:07:50.931Z,99487.77
2023-04-15T16:12:57.772Z,99490.42
2023-04-15T16:18:04.978Z,99492.79
2023-04-15T16:23:15.976Z,99500.60
2023-04-15T16:28:26.904Z,99509.08
2023-04-15T16:33:34.899Z,99518.80
2023-04-15T16:38:41.838Z,99526.94
2023-04-15T16:43:48.676Z,99528.98
2023-04-15T16:48:55.556Z,99536.60
2023-04-15T16:54:02.664Z,99540.27
2023-04-15T16:59:10.081Z,99542.61
2023-04-15T17:04:20.748Z,99546.17
2023-04-15T17:09:27.806Z,99553.27
2023-04-15T17:14:35.239Z,99569.10
2023-04-15T17:19:42.181Z,99578.70
2023-04-15T17:24:49.044Z,99582.38
2023-04-15T17:29:56.266Z,99593.38
2023-04-15T17:35:06.079Z,99601.65
2023-04-15T17:40:14.985Z,99611.73
2023-04-15T17:45:21.875Z,99617.98
2023-04-15T17:50:28.973Z,99626.45
2023-04-15T17:55:36.453Z,99642.17
2023-04-15T18:00:43.281Z,99656.52
2023-04-15T18:05:50.166Z,99670.15
2023-04-15T18:10:57.549Z,99675.72
2023-04-15T18:16:04.622Z,99682.98
2023-04-15T18:21:13.581Z,99692.06
2023-04-15T18:26:21.650Z,99699.76
2023-04-15T18:31:28.573Z,99706.20
2023-04-15T18:36:35.826Z,99715.65
2023-04-15T18:41:42.738Z,99722.25
2023-04-15T18:46:51.296Z,99725.70
2023-04-15T18:51:58.226Z,99729.80
2023-04-15T18:57:06.676Z,99733.56
2023-04-15T19:02:14.021Z,99736.86
2023-04-15T19:07:21.048Z,99739.77
2023-04-15T19:12:28.267Z,99749.88
2023-04-15T19:17:35.740Z,99761.85
2023-04-15T19:22:43.504Z,99770.02
2023-04-15T19:27:50.357Z,99771.55
2023-04-15T19:32:57.598Z,99779.27
2023-04-15T19:38:05.738Z,99786.49
2023-04-15T19:43:12.786Z,99791.38
2023-04-15T19:48:19.858Z,99794.17
2023-04-15T19:53:26.710Z,99799.44
2023-04-15T19:58:33.656Z,99800.54
2023-04-15T20:03:41.178Z,99797.34
2023-04-15T20:08:48.325Z,99798.72
2023-04-15T20:13:55.578Z,99804.90
2023-04-15T20:19:07.614Z,99814.88
2023-04-15T20:24:15.070Z,99818.62
2023-04-15T20:29:22.457Z,99820.03
2023-04-15T20:34:29.657Z,99821.28
2023-04-15T20:39:36.754Z,99823.77
2023-04-15T20:44:43.772Z,99826.00
2023-04-15T20:49:50.870Z,99832.48
2023-04-15T20:54:57.780Z,99834.47
2023-04-15T21:00:05.057Z,99841.10
2023-04-15T21:05:12.287Z,99841.06
2023-04-15T21:10:19.159Z,99846.76
2023-04-15T21:15:25.998Z,99850.28
2023-04-15T21:20:33.016Z,99853.88
2023-04-15T21:25:39.811Z,99856.60
2023-04-15T21:30:47.370Z,99858.97
2023-04-15T21:35:55.542Z,99860.13
2023-04-15T21:41:05.958Z,99860.81
2023-04-15T21:46:22.470Z,99866.65
2023-04-15T21:51:32.766Z,99871.89
2023-04-15T21:56:39.672Z,99879.02
2023-04-15T22:01:47.473Z,99885.05
2023-04-15T22:06:55.766Z,99888.63
2023-04-15T22:12:04.712Z,99894.92
2023-04-15T22:17:11.662Z,99898.45
2023-04-15T22:22:18.760Z,99905.30
2023-04-15T22:27:26.869Z,99904.75
2023-04-15T22:32:33.889Z,99912.19
2023-04-15T22:37:41.065Z,99911.30
2023-04-15T22:42:48.490Z,99923.94
2023-04-15T22:47:55.548Z,99933.41
2023-04-15T22:53:02.427Z,99932.41
2023-04-15T22:58:09.331Z,99939.27
2023-04-15T23:03:16.281Z,99948.51
2023-04-15T23:08:24.989Z,99953.47
2023-04-15T23:13:32.318Z,99949.58
2023-04-15T23:18:39.306Z,99955.52
2023-04-15T23:23:46.334Z,99964.92
2023-04-15T23:28:53.174Z,99963.54
2023-04-15T23:34:00.161Z,99966.63
2023-04-15T23:39:07.343Z,99968.56
2023-04-15T23:44:14.453Z,99971.59
2023-04-15T23:49:21.446Z,99968.96
2023-04-15T23:54:28.481Z,99962.98
2023-04-15T23:59:35.507Z,99963.63
